Time;durP1;ratioP1;P1;durP2;ratioP2;P2;SDS_P1;SDS_P2;PMS_P1;PMS_P2;Temp;Humidity;BMP_temperature;BMP_pressure;BME280_temperature;BME280_humidity;BME280_pressure;Samples;Min_cycle;Max_cycle;Signal;HPM_P1;HPM_P2
2023/10/23 00:01:38;;;;;;;5.13;4.63;;;;;;;12.28;76.83;101158.59;5044493;28;20036;-65
2023/10/23 00:04:07;;;;;;;5.72;4.97;;;;;;;12.23;76.34;101161.31;5044011;28;20037;-65
2023/10/23 00:06:33;;;;;;;6.40;5.15;;;;;;;12.22;76.38;101165.22;5042830;28;20087;-65
2023/10/23 00:08:59;;;;;;;5.15;4.65;;;;;;;12.19;76.19;101176.03;5047352;28;20062;-65
2023/10/23 00:11:25;;;;;;;6.03;4.80;;;;;;;12.17;76.03;101172.63;5028481;28;20535;-65
2023/10/23 00:13:51;;;;;;;6.57;4.07;;;;;;;12.16;76.18;101176.53;5035212;28;20033;-66
2023/10/23 00:16:23;;;;;;;5.78;4.82;;;;;;;12.17;76.07;101178.19;5057082;28;20028;-66
2023/10/23 00:18:48;;;;;;;7.65;4.85;;;;;;;12.18;76.07;101171.53;5036875;28;20026;-66
2023/10/23 00:21:15;;;;;;;5.75;4.18;;;;;;;12.13;75.77;101179.81;5027270;28;20037;-66
2023/10/23 00:23:40;;;;;;;5.75;5.15;;;;;;;12.08;75.62;101175.00;5027826;28;20025;-64
2023/10/23 00:26:08;;;;;;;8.07;5.15;;;;;;;12.08;75.75;101179.75;5030128;28;20140;-66
2023/10/23 00:28:34;;;;;;;5.47;4.40;;;;;;;12.08;75.32;101183.38;5067191;28;20025;-66
2023/10/23 00:31:00;;;;;;;5.90;4.57;;;;;;;12.07;75.24;101178.91;5053991;28;20032;-65
2023/10/23 00:33:26;;;;;;;5.28;4.78;;;;;;;12.04;74.99;101177.47;5042438;28;20056;-66
2023/10/23 00:35:55;;;;;;;6.13;4.53;;;;;;;12.02;74.73;101181.59;5032356;28;20087;-66
2023/10/23 00:38:20;;;;;;;5.20;4.55;;;;;;;12.00;74.81;101184.63;5037033;28;20128;-66
2023/10/23 00:40:45;;;;;;;8.77;4.68;;;;;;;11.99;74.71;101190.47;5035907;28;20029;-66
2023/10/23 00:43:12;;;;;;;5.53;4.70;;;;;;;11.99;74.66;101188.53;5047363;28;20132;-66
2023/10/23 00:45:48;;;;;;;5.22;4.65;;;;;;;11.94;75.13;101180.06;5041430;28;20600;-65
2023/10/23 00:48:14;;;;;;;6.40;4.80;;;;;;;11.92;74.92;101179.50;5046591;28;20039;-66
2023/10/23 00:50:42;;;;;;;6.00;4.70;;;;;;;11.96;75.29;101186.25;5041305;28;20385;-66
2023/10/23 00:53:07;;;;;;;5.72;4.28;;;;;;;11.86;75.21;101188.84;5027552;28;20040;-66
2023/10/23 00:55:36;;;;;;;7.82;5.15;;;;;;;11.84;76.55;101191.06;5026735;28;20466;-66
2023/10/23 00:58:02;;;;;;;8.65;4.70;;;;;;;11.86;76.84;101194.41;5035656;28;20036;-66
2023/10/23 01:00:27;;;;;;;5.65;4.63;;;;;;;11.86;76.59;101197.19;5040662;28;20038;-66
2023/10/23 01:02:53;;;;;;;6.53;4.55;;;;;;;11.85;76.31;101191.91;5044897;28;20108;-66
2023/10/23 01:05:18;;;;;;;6.07;4.75;;;;;;;11.86;75.69;101194.41;5039306;28;20060;-66
2023/10/23 01:07:44;;;;;;;7.57;4.47;;;;;;;11.86;75.45;101199.13;5047303;28;20037;-66
2023/10/23 01:10:09;;;;;;;5.05;4.50;;;;;;;11.80;75.90;101200.97;5044427;28;20037;-66
2023/10/23 01:12:35;;;;;;;5.03;4.50;;;;;;;11.79;75.79;101204.84;5046673;28;20032;-66
2023/10/23 01:15:00;;;;;;;5.55;4.72;;;;;;;11.83;76.37;101199.59;5038472;28;20052;-65
2023/10/23 01:17:28;;;;;;;6.28;4.43;;;;;;;11.78;76.54;101208.72;5042064;28;20029;-64
2023/10/23 01:19:54;;;;;;;5.07;3.95;;;;;;;11.79;76.67;101205.69;5050393;28;20426;-64
2023/10/23 01:22:19;;;;;;;9.35;4.63;;;;;;;11.77;77.13;101210.66;5050788;28;20033;-63
2023/10/23 01:24:47;;;;;;;10.18;4.85;;;;;;;11.77;77.83;101207.03;5043879;28;20200;-64
2023/10/23 01:27:12;;;;;;;5.55;4.80;;;;;;;11.86;77.85;101204.69;5052581;28;20029;-64
2023/10/23 01:29:37;;;;;;;6.43;4.65;;;;;;;11.82;77.94;101204.31;5062654;28;20032;-64
2023/10/23 01:32:03;;;;;;;8.95;5.15;;;;;;;11.86;78.21;101204.69;5065047;28;20159;-64
2023/10/23 01:34:28;;;;;;;8.18;4.78;;;;;;;11.78;78.27;101200.38;5046170;28;20333;-64
2023/10/23 01:36:54;;;;;;;6.78;4.68;;;;;;;11.77;78.41;101193.97;5041102;28;20029;-64
2023/10/23 01:39:19;;;;;;;10.38;5.13;;;;;;;11.83;77.76;101197.72;5029699;28;20044;-64
2023/10/23 01:41:44;;;;;;;6.03;4.72;;;;;;;11.78;77.63;101194.81;5030687;28;20022;-64
2023/10/23 01:44:10;;;;;;;7.53;5.13;;;;;;;11.79;77.76;101196.50;5030547;28;20524;-63
2023/10/23 01:46:35;;;;;;;7.43;4.78;;;;;;;11.74;78.14;101197.25;5029690;28;20029;-64
2023/10/23 01:49:00;;;;;;;8.18;5.03;;;;;;;11.75;77.85;101193.41;5034371;28;20098;-64
2023/10/23 01:51:26;;;;;;;5.85;4.75;;;;;;;11.71;78.15;101196.91;5052136;28;20094;-63
2023/10/23 01:53:51;;;;;;;11.07;5.30;;;;;;;11.72;78.69;101201.41;5055995;28;20056;-63
2023/10/23 01:56:17;;;;;;;8.70;4.43;;;;;;;11.70;78.08;101190.50;5054126;28;20056;-64
2023/10/23 01:58:42;;;;;;;7.45;4.57;;;;;;;11.66;78.25;101199.59;5053686;28;20104;-64
2023/10/23 02:01:18;;;;;;;6.53;4.85;;;;;;;11.70;78.44;101189.66;5053133;28;20025;-63
2023/10/23 02:03:44;;;;;;;7.68;5.03;;;;;;;11.68;78.40;101198.28;5042962;28;20025;-64
2023/10/23 02:06:09;;;;;;;10.18;5.07;;;;;;;11.70;77.99;101195.22;5049516;28;20045;-64
2023/10/23 02:08:34;;;;;;;7.45;4.57;;;;;;;11.65;78.46;101192.38;5054669;28;20032;-64
2023/10/23 02:11:02;;;;;;;8.27;5.07;;;;;;;11.70;78.45;101200.78;5053695;28;20025;-63
2023/10/23 02:13:28;;;;;;;7.97;5.20;;;;;;;11.70;78.14;101201.63;5053839;28;20028;-64
2023/10/23 02:15:53;;;;;;;7.15;4.43;;;;;;;11.65;78.01;101200.72;5051087;28;20104;-64
2023/10/23 02:18:19;;;;;;;7.50;4.97;;;;;;;11.60;77.86;101206.19;5042379;28;20472;-64
2023/10/23 02:20:53;;;;;;;10.63;4.97;;;;;;;11.61;78.22;101207.88;5032932;28;20384;-64
2023/10/23 02:23:18;;;;;;;7.28;4.95;;;;;;;11.62;78.30;101212.31;5033488;28;20171;-64
2023/10/23 02:25:44;;;;;;;7.50;4.30;;;;;;;11.58;77.36;101213.94;5049826;28;20156;-63
2023/10/23 02:28:16;;;;;;;8.40;4.88;;;;;;;11.62;77.89;101227.06;5052194;28;20029;-63
2023/10/23 02:30:41;;;;;;;7.80;4.88;;;;;;;11.59;77.68;101218.38;5052635;28;20107;-64
2023/10/23 02:33:06;;;;;;;8.23;5.10;;;;;;;11.51;77.98;101223.28;5053379;28;20109;-64
2023/10/23 02:35:35;;;;;;;9.80;4.93;;;;;;;11.53;78.48;101226.66;5038647;28;20025;-64
2023/10/23 02:38:03;;;;;;;7.20;5.20;;;;;;;11.51;77.98;101219.63;5035648;28;20540;-64
2023/10/23 02:40:29;;;;;;;6.75;4.47;;;;;;;11.52;78.20;101227.75;5033196;28;20033;-64
2023/10/23 02:42:54;;;;;;;8.40;4.93;;;;;;;11.47;77.92;101226.78;5050459;28;20025;-64
2023/10/23 02:45:20;;;;;;;11.25;5.10;;;;;;;11.45;78.34;101221.50;5054416;28;20393;-64
2023/10/23 02:47:45;;;;;;;11.68;5.35;;;;;;;11.45;78.13;101223.44;5073154;28;20029;-64
2023/10/23 02:50:10;;;;;;;6.95;4.57;;;;;;;11.47;77.33;101216.50;5071829;28;20059;-64
2023/10/23 02:52:36;;;;;;;6.22;4.80;;;;;;;11.43;77.15;101218.09;5054409;28;20026;-64
2023/10/23 02:55:01;;;;;;;7.45;4.70;;;;;;;11.42;76.57;101224.75;5039885;28;20107;-63
2023/10/23 02:57:26;;;;;;;8.60;4.80;;;;;;;11.42;76.52;101226.72;5031709;28;20109;-64
2023/10/23 02:59:52;;;;;;;9.13;4.65;;;;;;;11.44;76.46;101216.19;5049297;28;20033;-64
2023/10/23 03:02:18;;;;;;;5.50;4.20;;;;;;;11.42;76.18;101235.03;5051277;28;20070;-64
2023/10/23 03:04:44;;;;;;;6.47;4.13;;;;;;;11.38;75.60;101226.34;5051552;28;20021;-64
2023/10/23 03:07:09;;;;;;;5.80;4.45;;;;;;;11.33;75.64;101223.50;5052367;28;20035;-63
2023/10/23 03:09:36;;;;;;;4.85;4.35;;;;;;;11.35;75.90;101221.28;5052168;28;20159;-63
2023/10/23 03:12:02;;;;;;;6.03;3.97;;;;;;;11.32;75.44;101224.59;5037694;28;20029;-63
2023/10/23 03:14:27;;;;;;;7.28;4.55;;;;;;;11.29;75.14;101233.41;5032838;28;20052;-63
2023/10/23 03:16:53;;;;;;;5.70;4.18;;;;;;;11.30;74.88;101221.22;5066723;28;20035;-64
2023/10/23 03:19:19;;;;;;;4.30;3.67;;;;;;;11.28;74.41;101220.63;5072011;28;20032;-64
2023/10/23 03:21:45;;;;;;;6.15;4.20;;;;;;;11.23;74.62;101226.06;5071966;28;20025;-63
2023/10/23 03:24:10;;;;;;;6.35;4.28;;;;;;;11.22;74.64;101225.22;5070885;28;20613;-63
2023/10/23 03:26:35;;;;;;;8.55;4.40;;;;;;;11.18;74.22;101225.97;5071441;28;20115;-63
2023/10/23 03:29:01;;;;;;;5.78;4.18;;;;;;;11.15;74.21;101223.69;5071959;28;20209;-63
2023/10/23 03:31:26;;;;;;;5.28;3.83;;;;;;;11.15;74.42;101226.47;5040119;28;20033;-63
2023/10/23 03:33:51;;;;;;;5.20;3.95;;;;;;;11.10;74.14;101221.66;5051547;28;20032;-64
2023/10/23 03:36:17;;;;;;;5.80;4.28;;;;;;;11.11;73.73;101225.28;5071305;28;20381;-64
2023/10/23 03:38:42;;;;;;;6.60;4.28;;;;;;;11.11;74.17;101223.34;5070816;28;20104;-63
2023/10/23 03:41:07;;;;;;;5.38;3.80;;;;;;;11.07;73.91;101228.53;5071514;28;20071;-64
2023/10/23 03:43:33;;;;;;;6.60;4.20;;;;;;;11.06;73.30;101228.81;5071553;28;20020;-64
2023/10/23 03:46:02;;;;;;;8.75;4.70;;;;;;;11.05;73.85;101235.47;5070736;28;20043;-64
2023/10/23 03:48:28;;;;;;;7.80;4.60;;;;;;;11.01;73.71;101231.50;5071788;28;20020;-63
2023/10/23 03:50:54;;;;;;;6.50;4.15;;;;;;;11.00;73.79;101235.31;5040108;28;20386;-64
2023/10/23 03:53:19;;;;;;;6.07;4.00;;;;;;;10.96;73.81;101234.97;5050798;28;20488;-63
2023/10/23 03:55:44;;;;;;;5.10;3.85;;;;;;;10.96;74.03;101226.66;5051374;28;20032;-64
2023/10/23 03:58:12;;;;;;;4.72;4.07;;;;;;;10.91;73.32;101232.09;5051775;28;20043;-63
2023/10/23 04:00:38;;;;;;;7.28;4.38;;;;;;;10.89;73.54;101239.00;5050859;28;20032;-63
2023/10/23 04:03:03;;;;;;;7.15;4.68;;;;;;;10.89;73.33;101233.47;5037951;28;20033;-64
2023/10/23 04:05:30;;;;;;;6.47;4.47;;;;;;;10.90;73.54;101244.31;5054521;28;20059;-63
2023/10/23 04:07:55;;;;;;;6.10;4.30;;;;;;;10.87;73.09;101239.25;5051092;28;20021;-64
2023/10/23 04:10:21;;;;;;;5.80;4.22;;;;;;;10.84;73.13;101242.50;5051146;28;20130;-64
2023/10/23 04:12:46;;;;;;;6.90;4.22;;;;;;;10.85;72.92;101238.66;5050841;28;20033;-63
2023/10/23 04:15:11;;;;;;;6.88;4.18;;;;;;;10.80;72.90;101241.31;5050467;28;20032;-64
2023/10/23 04:17:37;;;;;;;5.18;3.95;;;;;;;10.79;72.74;101237.69;5051049;28;20044;-63
2023/10/23 04:20:03;;;;;;;6.55;4.20;;;;;;;10.76;72.77;101237.34;5050826;28;20025;-63
2023/10/23 04:22:28;;;;;;;4.90;4.05;;;;;;;10.75;72.78;101238.44;5034451;28;20029;-63
2023/10/23 04:24:54;;;;;;;6.95;4.20;;;;;;;10.74;72.80;101242.31;5048736;28;20049;-63
2023/10/23 04:27:20;;;;;;;4.85;3.83;;;;;;;10.70;72.80;101235.56;5051729;28;20043;-64
2023/10/23 04:29:46;;;;;;;4.32;3.92;;;;;;;10.68;72.94;101249.66;5051225;28;20025;-63
2023/10/23 04:32:11;;;;;;;7.75;4.15;;;;;;;10.69;72.95;101242.16;5051241;28;20040;-63
2023/10/23 04:34:36;;;;;;;6.25;4.25;;;;;;;10.65;72.77;101241.84;5063767;28;20020;-64
2023/10/23 04:37:03;;;;;;;4.43;4.00;;;;;;;10.66;72.52;101240.75;5068805;28;20442;-63
2023/10/23 04:39:28;;;;;;;8.00;4.13;;;;;;;10.60;72.43;101251.97;5052678;28;20028;-64
2023/10/23 04:41:53;;;;;;;7.38;4.40;;;;;;;10.62;72.42;101256.22;5056168;28;20372;-63
2023/10/23 04:44:19;;;;;;;5.05;3.90;;;;;;;10.61;72.23;101248.97;5055561;28;20033;-63
2023/10/23 04:46:45;;;;;;;5.90;3.72;;;;;;;10.59;72.25;101255.84;5050737;28;20476;-63
2023/10/23 04:49:11;;;;;;;5.07;3.53;;;;;;;10.57;72.35;101254.16;5043079;28;20033;-63
2023/10/23 04:51:36;;;;;;;6.50;3.72;;;;;;;10.56;72.18;101251.63;5035088;28;20021;-63
2023/10/23 04:54:05;;;;;;;4.68;3.72;;;;;;;10.51;72.14;101249.56;5059579;28;20025;-63
2023/10/23 04:56:30;;;;;;;9.93;4.03;;;;;;;10.51;72.37;101245.97;5070013;28;20527;-64
2023/10/23 04:58:56;;;;;;;8.20;4.10;;;;;;;10.46;72.26;101241.16;5053464;28;20031;-64
2023/10/23 05:01:22;;;;;;;6.45;4.30;;;;;;;10.46;72.29;101243.91;5047499;28;20025;-64
2023/10/23 05:03:47;;;;;;;5.57;3.90;;;;;;;10.43;72.35;101235.22;5044976;28;20057;-63
2023/10/23 05:06:13;;;;;;;4.97;3.40;;;;;;;10.42;72.45;101239.09;5030577;28;20061;-63
2023/10/23 05:08:38;;;;;;;6.15;3.80;;;;;;;10.42;72.10;101241.88;5030712;28;20029;-64
2023/10/23 05:11:07;;;;;;;5.60;3.97;;;;;;;10.41;72.24;101249.34;5029740;28;20052;-63
2023/10/23 05:13:33;;;;;;;7.80;4.00;;;;;;;10.38;72.25;101249.00;5061265;28;20508;-64
2023/10/23 05:16:05;;;;;;;6.28;3.42;;;;;;;10.39;72.35;101248.75;5050364;28;20044;-63
2023/10/23 05:18:31;;;;;;;4.93;4.07;;;;;;;10.38;72.10;101247.06;5048009;28;20021;-63
2023/10/23 05:20:57;;;;;;;4.90;3.70;;;;;;;10.34;72.06;101237.53;5054462;28;20025;-63
2023/10/23 05:23:22;;;;;;;4.38;3.95;;;;;;;10.35;72.22;101242.00;5052028;28;20040;-63
2023/10/23 05:25:48;;;;;;;7.30;3.83;;;;;;;10.31;71.57;101238.00;5052908;28;20041;-64
2023/10/23 05:28:13;;;;;;;6.05;3.70;;;;;;;10.26;72.34;101238.75;5054123;28;20036;-64
2023/10/23 05:30:38;;;;;;;6.00;4.30;;;;;;;10.26;72.33;101235.13;5053624;28;20021;-64
2023/10/23 05:33:04;;;;;;;5.63;3.90;;;;;;;10.26;72.06;101235.97;5050249;28;20025;-63
2023/10/23 05:35:29;;;;;;;4.90;3.83;;;;;;;10.24;71.73;101237.25;5048201;28;20036;-64
2023/10/23 05:37:57;;;;;;;5.65;3.95;;;;;;;10.24;72.03;101231.72;5046264;28;20025;-64
2023/10/23 05:40:22;;;;;;;5.95;4.35;;;;;;;10.19;71.92;101235.22;5048263;28;20112;-64
2023/10/23 05:42:47;;;;;;;6.32;3.78;;;;;;;10.20;71.77;101236.06;5051670;28;20124;-64
2023/10/23 05:45:13;;;;;;;4.55;3.85;;;;;;;10.16;71.68;101235.69;5052141;28;20063;-64
2023/10/23 05:47:38;;;;;;;4.65;3.72;;;;;;;10.16;71.88;101234.84;5052881;28;20021;-63
2023/10/23 05:50:06;;;;;;;4.80;3.80;;;;;;;10.12;71.66;101242.81;5047494;28;20101;-64
2023/10/23 05:52:32;;;;;;;6.45;3.70;;;;;;;10.13;71.48;101246.41;5050567;28;20033;-63
2023/10/23 05:54:57;;;;;;;6.13;3.85;;;;;;;10.14;71.86;101248.09;5052281;28;20475;-63
2023/10/23 05:57:22;;;;;;;6.85;3.67;;;;;;;10.08;71.39;101239.66;5049160;28;20036;-63
2023/10/23 05:59:50;;;;;;;6.57;3.80;;;;;;;10.08;70.93;101238.81;5055393;28;20028;-63
2023/10/23 06:02:15;;;;;;;7.28;3.70;;;;;;;10.04;71.47;101237.63;5050265;28;20565;-63
2023/10/23 06:04:44;;;;;;;5.47;3.88;;;;;;;10.03;71.95;101245.09;5049956;28;20112;-63
2023/10/23 06:07:09;;;;;;;5.50;3.63;;;;;;;10.04;71.62;101227.38;5043754;28;20032;-63
2023/10/23 06:09:34;;;;;;;3.60;3.30;;;;;;;10.01;71.71;101229.78;5057019;28;20598;-64
2023/10/23 06:12:00;;;;;;;4.65;3.53;;;;;;;10.02;71.64;101237.00;5050181;28;20037;-63
2023/10/23 06:14:28;;;;;;;6.05;4.18;;;;;;;9.97;71.78;101243.28;5054079;28;20388;-62
2023/10/23 06:16:53;;;;;;;5.57;3.47;;;;;;;9.95;71.66;101239.91;5059192;28;20037;-62
2023/10/23 06:19:18;;;;;;;4.05;3.55;;;;;;;9.96;72.14;101238.81;5053154;28;20320;-62
2023/10/23 06:21:43;;;;;;;5.13;3.45;;;;;;;9.98;71.77;101238.56;5051754;28;20035;-62
2023/10/23 06:24:09;;;;;;;4.35;3.42;;;;;;;10.00;72.29;101234.47;5048403;28;20127;-61
2023/10/23 06:26:34;;;;;;;4.55;3.50;;;;;;;9.98;72.12;101238.56;5048463;28;20701;-62
2023/10/23 06:28:59;;;;;;;5.05;3.67;;;;;;;9.95;72.11;101234.34;5051761;28;20032;-62
2023/10/23 06:31:25;;;;;;;6.43;3.47;;;;;;;9.96;71.84;101236.03;5049632;28;20056;-61
2023/10/23 06:33:51;;;;;;;5.03;3.40;;;;;;;9.96;72.57;101244.34;5054948;28;20034;-62
2023/10/23 06:36:17;;;;;;;6.88;3.45;;;;;;;9.97;72.00;101243.28;5051553;28;20036;-62
2023/10/23 06:38:42;;;;;;;7.63;3.42;;;;;;;9.99;72.10;101243.88;5051133;28;20040;-61
2023/10/23 06:41:10;;;;;;;4.97;3.45;;;;;;;9.94;72.49;101243.78;5043972;28;20126;-60
2023/10/23 06:43:37;;;;;;;7.63;3.55;;;;;;;9.95;72.16;101247.38;5046811;28;20193;-60
2023/10/23 06:46:03;;;;;;;6.43;3.42;;;;;;;9.95;72.64;101244.59;5050060;28;20048;-61
2023/10/23 06:48:29;;;;;;;5.93;3.47;;;;;;;9.94;72.78;101246.53;5047541;28;20036;-60
2023/10/23 06:50:55;;;;;;;5.25;4.13;;;;;;;9.97;72.93;101239.66;5048713;28;20020;-61
2023/10/23 06:53:20;;;;;;;5.90;4.13;;;;;;;9.96;73.47;101249.91;5045624;28;20391;-61
2023/10/23 06:55:55;;;;;;;7.18;3.78;;;;;;;10.01;73.72;101247.25;5045510;28;20465;-61
2023/10/23 06:58:21;;;;;;;8.68;4.38;;;;;;;10.03;73.49;101245.09;5046061;28;20028;-61
2023/10/23 07:00:46;;;;;;;6.22;4.20;;;;;;;10.06;74.06;101241.84;5031892;28;20041;-60
2023/10/23 07:03:13;;;;;;;8.18;4.85;;;;;;;10.06;73.91;101238.19;5047629;28;20062;-61
2023/10/23 07:05:39;;;;;;;9.77;4.78;;;;;;;10.05;74.57;101234.59;5042534;28;20040;-61
2023/10/23 07:08:04;;;;;;;7.88;4.18;;;;;;;10.08;74.64;101236.88;5036984;28;20029;-63
2023/10/23 07:10:37;;;;;;;5.90;4.47;;;;;;;10.09;74.17;101237.72;5041469;28;20029;-63
2023/10/23 07:13:03;;;;;;;6.55;4.60;;;;;;;10.13;74.31;101236.16;5041627;28;20512;-62
2023/10/23 07:15:31;;;;;;;6.35;4.70;;;;;;;10.19;74.80;101242.69;5042674;28;20037;-62
2023/10/23 07:17:57;;;;;;;7.70;4.95;;;;;;;10.18;75.30;101238.22;5048197;28;20120;-61
2023/10/23 07:20:22;;;;;;;7.70;5.30;;;;;;;10.22;75.24;101237.50;5040471;28;20448;-61
2023/10/23 07:22:47;;;;;;;9.95;5.45;;;;;;;10.25;75.40;101233.41;5050227;28;20070;-61
2023/10/23 07:25:13;;;;;;;7.63;5.03;;;;;;;10.25;75.60;101225.94;5041688;28;20070;-62
2023/10/23 07:27:39;;;;;;;6.45;5.00;;;;;;;10.32;75.44;101228.59;5045288;28;20032;-64
2023/10/23 07:30:05;;;;;;;9.20;5.80;;;;;;;10.32;75.79;101228.59;5044531;28;20028;-63
2023/10/23 07:32:30;;;;;;;8.02;5.07;;;;;;;10.32;76.06;101242.47;5036960;28;20056;-65
2023/10/23 07:34:55;;;;;;;8.50;5.30;;;;;;;10.40;76.71;101242.09;5051559;28;20047;-63
2023/10/23 07:37:22;;;;;;;11.70;5.32;;;;;;;10.41;76.55;101243.78;5044498;28;20029;-64
2023/10/23 07:39:48;;;;;;;10.48;5.05;;;;;;;10.42;76.79;101248.25;5045316;28;20128;-64
2023/10/23 07:42:16;;;;;;;7.22;5.07;;;;;;;10.44;77.05;101246.06;5042972;28;20468;-64
2023/10/23 07:44:44;;;;;;;6.72;5.03;;;;;;;10.45;77.66;101245.00;5050248;28;20037;-64
2023/10/23 07:47:09;;;;;;;7.28;4.70;;;;;;;10.51;77.91;101252.34;5050207;28;20837;-64
2023/10/23 07:49:38;;;;;;;7.03;5.22;;;;;;;10.56;78.28;101251.63;5054583;28;20035;-64
2023/10/23 07:52:03;;;;;;;7.28;4.28;;;;;;;10.63;78.87;101240.38;5045126;28;20033;-65
2023/10/23 07:54:31;;;;;;;8.77;5.35;;;;;;;10.67;79.11;101244.38;5039363;28;20021;-64
2023/10/23 07:56:56;;;;;;;7.30;4.78;;;;;;;10.72;78.96;101244.47;5037186;28;20044;-63
2023/10/23 07:59:26;;;;;;;8.20;5.10;;;;;;;10.75;79.06;101250.38;5039895;28;20021;-63
2023/10/23 08:01:52;;;;;;;9.27;5.03;;;;;;;10.85;80.33;101249.78;5037265;28;20040;-64
2023/10/23 08:04:17;;;;;;;9.60;5.45;;;;;;;10.88;79.33;101242.84;5040708;28;20037;-63
2023/10/23 08:06:43;;;;;;;8.38;5.93;;;;;;;10.92;79.19;101239.34;5048157;28;20033;-64
2023/10/23 08:09:10;;;;;;;12.05;5.78;;;;;;;10.94;79.66;101226.06;5045251;28;20070;-60
2023/10/23 08:11:35;;;;;;;10.40;4.90;;;;;;;11.00;79.72;101232.56;5046523;28;20032;-62
2023/10/23 08:14:00;;;;;;;9.70;5.20;;;;;;;11.03;79.18;101229.28;5042507;28;20038;-61
2023/10/23 08:16:26;;;;;;;9.63;5.15;;;;;;;11.11;78.97;101225.28;5038410;28;21873;-62
2023/10/23 08:18:51;;;;;;;9.57;5.15;;;;;;;11.14;79.37;101220.06;5047468;28;20048;-61
2023/10/23 08:21:16;;;;;;;8.13;5.28;;;;;;;11.14;79.23;101222.00;5048661;28;20100;-60
2023/10/23 08:23:43;;;;;;;9.15;5.53;;;;;;;11.19;79.41;101227.66;5042417;28;20025;-61
2023/10/23 08:26:09;;;;;;;10.02;5.50;;;;;;;11.19;79.42;101227.66;5049773;28;20041;-58
2023/10/23 08:28:34;;;;;;;9.63;5.10;;;;;;;11.20;79.54;101227.44;5039988;28;20519;-61
2023/10/23 08:30:59;;;;;;;9.98;5.43;;;;;;;11.20;79.95;101235.75;5043704;28;20426;-62
2023/10/23 08:33:27;;;;;;;9.23;4.40;;;;;;;11.58;85.78;101234.22;5043452;28;20113;-59
2023/10/23 08:35:53;;;;;;;10.73;5.85;;;;;;;11.45;81.16;101238.16;5040828;28;20021;-62
2023/10/23 08:38:18;;;;;;;10.18;4.68;;;;;;;11.81;85.09;101236.03;5046261;28;20017;-62
2023/10/23 08:40:43;;;;;;;10.13;6.10;;;;;;;11.72;80.68;101238.38;5040894;28;20151;-61
2023/10/23 08:43:09;;;;;;;9.57;5.45;;;;;;;11.76;80.28;101244.28;5046206;28;20028;-62
2023/10/23 08:45:34;;;;;;;9.57;6.15;;;;;;;11.75;79.74;101239.78;5043480;28;20435;-60
2023/10/23 08:48:00;;;;;;;10.73;5.93;;;;;;;11.77;80.16;101230.13;5042975;28;20029;-62
2023/10/23 08:50:26;;;;;;;10.70;5.93;;;;;;;11.80;79.66;101240.75;5044260;28;20020;-61
2023/10/23 08:52:59;;;;;;;11.90;5.82;;;;;;;11.83;79.97;101232.97;5047768;28;20029;-62
2023/10/23 08:55:28;;;;;;;8.23;5.45;;;;;;;11.86;79.82;101233.34;5038306;28;20044;-62
2023/10/23 08:57:54;;;;;;;12.77;6.13;;;;;;;11.87;79.99;101226.72;5049043;28;20053;-63
2023/10/23 09:00:22;;;;;;;13.43;6.55;;;;;;;11.90;80.41;101231.75;5051049;28;20869;-64
2023/10/23 09:02:49;;;;;;;15.40;5.90;;;;;;;11.96;79.71;101227.97;5047456;28;20017;-63
2023/10/23 09:05:14;;;;;;;12.13;6.20;;;;;;;11.98;80.14;101224.91;5044600;28;20056;-63
2023/10/23 09:07:40;;;;;;;11.88;5.80;;;;;;;11.99;80.35;101221.91;5045136;28;20124;-63
2023/10/23 09:10:05;;;;;;;9.60;5.78;;;;;;;12.03;80.21;101222.25;5040429;28;20029;-63
2023/10/23 09:12:35;;;;;;;11.52;5.93;;;;;;;12.08;80.17;101227.03;5056060;28;20037;-64
2023/10/23 09:15:17;;;;;;;11.00;5.72;;;;;;;12.11;79.84;101215.41;5044839;28;20502;-63
2023/10/23 09:17:45;;;;;;;;;;;;;;;12.20;79.64;101211.94;5050051;28;20032;-63
2023/10/23 09:20:19;;;;;;;9.90;5.57;;;;;;;12.19;79.75;101210.25;5058957;28;19929;-64
2023/10/23 09:22:48;;;;;;;13.82;6.65;;;;;;;12.22;80.20;101204.19;5048620;28;20117;-64
2023/10/23 09:25:21;;;;;;;9.68;5.60;;;;;;;12.28;80.43;101207.88;5044509;28;20037;-64
2023/10/23 09:27:47;;;;;;;11.10;5.70;;;;;;;12.26;80.00;101207.25;5046628;28;20040;-64
2023/10/23 09:30:15;;;;;;;10.52;5.63;;;;;;;12.33;79.88;101210.72;5047010;28;20033;-64
2023/10/23 09:32:41;;;;;;;12.95;5.45;;;;;;;12.36;79.67;101199.06;5047460;28;20028;-64
2023/10/23 09:35:08;;;;;;;9.32;4.70;;;;;;;12.39;79.02;101204.13;5048719;28;20461;-64
2023/10/23 09:37:36;;;;;;;10.45;4.40;;;;;;;12.39;79.19;101201.34;5045519;28;20408;-64
2023/10/23 09:40:06;;;;;;;12.82;5.60;;;;;;;12.43;79.62;101190.53;5049455;28;20119;-65
2023/10/23 09:42:32;;;;;;;8.75;5.30;;;;;;;12.47;80.02;101189.78;5046644;28;20029;-64
2023/10/23 09:45:00;;;;;;;15.23;5.18;;;;;;;12.49;80.04;101178.38;5046515;28;20048;-65
2023/10/23 09:47:30;;;;;;;12.73;6.03;;;;;;;12.50;79.79;101174.50;5042738;28;20120;-64
2023/10/23 09:49:56;;;;;;;12.15;5.22;;;;;;;12.50;80.11;101178.13;5043714;28;20128;-64
2023/10/23 09:52:26;;;;;;;14.32;5.15;;;;;;;12.51;80.32;101185.38;5045999;28;21911;-65
2023/10/23 09:55:00;;;;;;;12.55;4.75;;;;;;;12.52;80.67;101186.22;5044976;28;20488;-65
2023/10/23 09:57:33;;;;;;;13.15;5.40;;;;;;;12.53;80.04;101194.28;5041270;28;21100;-64
2023/10/23 10:00:00;;;;;;;9.50;4.40;;;;;;;12.53;79.82;101188.72;5037215;28;20029;-64
2023/10/23 10:02:37;;;;;;;7.32;4.25;;;;;;;12.55;79.84;101188.47;5040624;28;20099;-64
2023/10/23 10:05:08;;;;;;;13.88;4.82;;;;;;;12.59;80.23;101188.81;5059294;28;20029;-66
2023/10/23 10:07:56;;;;;;;11.02;4.45;;;;;;;12.64;80.94;101184.13;5039706;28;20029;-64
2023/10/23 10:10:23;;;;;;;12.60;4.68;;;;;;;12.64;80.17;101188.88;5034773;28;20039;-63
2023/10/23 10:12:49;;;;;;;11.30;4.78;;;;;;;12.64;80.41;101188.88;5036691;28;20424;-63
2023/10/23 10:15:15;;;;;;;11.73;5.07;;;;;;;12.65;80.72;101182.19;5052899;28;20086;-64
2023/10/23 10:17:41;;;;;;;13.65;4.85;;;;;;;12.65;80.18;101177.47;5038868;28;20041;-63
2023/10/23 10:20:09;;;;;;;10.98;4.93;;;;;;;12.65;80.73;101171.06;5042438;28;20029;-64
2023/10/23 10:22:37;;;;;;;14.18;5.45;;;;;;;12.67;79.82;101172.50;5049149;28;20041;-63
2023/10/23 10:25:07;;;;;;;12.52;5.53;;;;;;;12.68;80.53;101170.53;5040580;28;20554;-63
2023/10/23 10:27:33;;;;;;;8.93;5.20;;;;;;;12.71;80.27;101176.44;5042214;28;20064;-62
2023/10/23 10:30:07;;;;;;;17.17;5.13;;;;;;;12.73;79.97;101165.88;5054141;28;20191;-62
2023/10/23 10:32:33;;;;;;;14.38;5.40;;;;;;;12.74;79.73;101158.38;5046379;28;20112;-62
2023/10/23 10:35:03;;;;;;;11.30;5.90;;;;;;;12.70;79.36;101151.63;5040834;28;20124;-64
2023/10/23 10:37:31;;;;;;;12.90;5.35;;;;;;;12.71;79.70;101148.59;5049767;28;20033;-63
2023/10/23 10:39:56;;;;;;;11.10;5.30;;;;;;;12.72;79.68;101149.41;5052304;28;20049;-64
2023/10/23 10:42:29;;;;;;;12.05;5.88;;;;;;;12.73;80.05;101149.19;5041755;28;20029;-64
2023/10/23 10:44:55;;;;;;;12.02;6.13;;;;;;;12.76;80.20;101148.63;5044822;28;20085;-65
2023/10/23 10:47:34;;;;;;;13.32;5.63;;;;;;;12.78;80.54;101145.59;5044131;28;20380;-65
2023/10/23 10:49:59;;;;;;;14.55;6.38;;;;;;;12.82;80.41;101140.34;5045339;28;20408;-65
2023/10/23 10:52:27;;;;;;;15.88;6.30;;;;;;;12.87;80.79;101140.41;5046703;28;20043;-64
2023/10/23 10:54:59;;;;;;;10.75;5.93;;;;;;;12.89;80.66;101127.91;5046797;28;20158;-64
2023/10/23 10:57:25;;;;;;;13.30;6.28;;;;;;;12.90;79.85;101125.97;5041178;28;20028;-63
2023/10/23 10:59:55;;;;;;;16.88;7.00;;;;;;;12.92;79.76;101118.16;5038649;28;20074;-64
2023/10/23 11:02:22;;;;;;;14.13;6.10;;;;;;;12.94;79.12;101114.03;5042982;28;20033;-63
2023/10/23 11:04:47;;;;;;;20.88;6.22;;;;;;;12.93;79.12;101104.00;5041532;28;20384;-64
2023/10/23 11:07:13;;;;;;;15.02;5.95;;;;;;;12.97;79.46;101107.94;5045601;28;20032;-62
2023/10/23 11:09:38;;;;;;;17.52;5.72;;;;;;;12.98;79.36;101095.69;5044975;28;20090;-63
2023/10/23 11:12:06;;;;;;;17.45;5.28;;;;;;;13.07;80.65;101084.06;5045415;28;20682;-62
2023/10/23 11:14:31;;;;;;;14.60;6.18;;;;;;;13.33;82.93;101091.56;5045969;28;20396;-62
2023/10/23 11:16:56;;;;;;;11.18;5.60;;;;;;;13.68;83.01;101090.19;5047802;28;20093;-62
2023/10/23 11:19:22;;;;;;;9.70;4.47;;;;;;;13.70;77.11;101083.19;5045407;28;20024;-62
2023/10/23 11:21:47;;;;;;;13.93;4.80;;;;;;;13.75;76.59;101074.03;5046796;28;20029;-62